createdAt,value
2019-03-15T00:03:44.528Z,98744.53
2019-03-15T00:07:46.741Z,98749.55
2019-03-15T00:11:49.000Z,98751.00
2019-03-15T00:15:51.167Z,98743.33
2019-03-15T00:19:53.434Z,98746.91
2019-03-15T00:23:55.617Z,98741.42
2019-03-15T00:27:57.916Z,98738.42
2019-03-15T00:32:00.355Z,98737.95
2019-03-15T00:36:02.638Z,98742.27
2019-03-15T00:40:05.120Z,98735.09
2019-03-15T00:44:07.420Z,98731.99
2019-03-15T00:48:09.613Z,98725.05
2019-03-15T00:52:11.898Z,98730.31
2019-03-15T00:56:14.116Z,98731.85
2019-03-15T01:00:16.590Z,98726.81
2019-03-15T01:04:20.274Z,98724.69
2019-03-15T01:08:22.543Z,98728.86
2019-03-15T01:12:24.723Z,98728.02
2019-03-15T01:16:26.985Z,98728.63
2019-03-15T01:20:29.198Z,98728.38
2019-03-15T01:24:31.453Z,98732.08
2019-03-15T01:28:33.666Z,98728.27
2019-03-15T01:32:36.219Z,98728.75
2019-03-15T01:36:38.485Z,98734.48
2019-03-15T01:40:40.731Z,98731.85
2019-03-15T01:44:42.903Z,98737.73
2019-03-15T01:48:45.189Z,98727.68
2019-03-15T01:52:47.404Z,98732.10
2019-03-15T01:56:49.703Z,98729.25
2019-03-15T02:00:51.969Z,98725.67
2019-03-15T02:04:54.655Z,98723.62
2019-03-15T02:08:56.871Z,98731.62
2019-03-15T02:12:59.169Z,98733.89
2019-03-15T02:17:01.369Z,98740.94
2019-03-15T02:21:03.658Z,98732.24
2019-03-15T02:25:06.462Z,98737.25
2019-03-15T02:29:08.734Z,98734.37
2019-03-15T02:33:10.941Z,98731.88
2019-03-15T02:37:13.457Z,98731.27
2019-03-15T02:41:15.635Z,98731.27
2019-03-15T02:45:17.929Z,98733.30
2019-03-15T02:49:20.468Z,98729.86
2019-03-15T02:53:23.043Z,98731.52
2019-03-15T02:57:27.419Z,98734.62
2019-03-15T03:01:29.716Z,98729.50
2019-03-15T03:05:32.168Z,98737.00
2019-03-15T03:09:34.602Z,98731.04
2019-03-15T03:13:37.335Z,98728.63
2019-03-15T03:17:40.343Z,98727.79
2019-03-15T03:21:43.756Z,98731.98
2019-03-15T03:25:46.046Z,98725.92
2019-03-15T03:29:48.315Z,98723.62
2019-03-15T03:33:50.598Z,98728.55
2019-03-15T03:37:52.813Z,98722.30
2019-03-15T03:41:56.341Z,98724.45
2019-03-15T03:45:58.580Z,98734.03
2019-03-15T03:50:00.926Z,98733.78
2019-03-15T03:54:04.264Z,98744.08
2019-03-15T03:58:06.796Z,98745.95
2019-03-15T04:02:08.986Z,98742.52
2019-03-15T04:06:12.119Z,98737.36
2019-03-15T04:10:14.515Z,98742.63
2019-03-15T04:14:17.030Z,98737.84
2019-03-15T04:18:19.193Z,98743.24
2019-03-15T04:22:21.454Z,98744.08
2019-03-15T04:26:23.682Z,98739.88
2019-03-15T04:30:25.918Z,98741.19
2019-03-15T04:34:28.596Z,98746.13
2019-03-15T04:38:30.938Z,98745.53
2019-03-15T04:42:33.125Z,98746.62
2019-03-15T04:46:35.431Z,98749.72
2019-03-15T04:50:37.590Z,98756.89
2019-03-15T04:54:39.908Z,98753.28
2019-03-15T04:58:42.290Z,98752.72
2019-03-15T05:02:47.589Z,98756.67
2019-03-15T05:06:54.261Z,98758.54
2019-03-15T05:10:58.700Z,98757.98
2019-03-15T05:15:01.256Z,98757.84
2019-03-15T05:19:04.702Z,98762.98
2019-03-15T05:23:06.981Z,98761.66
2019-03-15T05:27:09.225Z,98759.55
2019-03-15T05:31:11.447Z,98765.61
2019-03-15T05:35:13.836Z,98764.91
2019-03-15T05:39:17.129Z,98767.42
2019-03-15T05:43:19.363Z,98760.59
2019-03-15T05:47:21.602Z,98763.37
2019-03-15T05:51:23.893Z,98765.05
2019-03-15T05:55:26.203Z,98767.31
2019-03-15T05:59:28.451Z,98762.53
2019-03-15T06:03:32.933Z,98761.11
2019-03-15T06:07:36.783Z,98771.48
2019-03-15T06:11:39.388Z,98766.13
2019-03-15T06:15:41.616Z,98766.92
2019-03-15T06:19:43.977Z,98776.87
2019-03-15T06:23:46.255Z,98783.30
2019-03-15T06:27:48.444Z,98778.41
2019-03-15T06:31:50.707Z,98787.48
2019-03-15T06:35:52.899Z,98786.53
2019-03-15T06:39:55.295Z,98789.53
2019-03-15T06:43:57.552Z,98782.81
2019-03-15T06:48:00.888Z,98786.65
2019-03-15T06:52:03.268Z,98793.31
2019-03-15T06:56:06.766Z,98790.69
2019-03-15T07:00:09.568Z,98789.73
2019-03-15T07:04:11.809Z,98795.59
2019-03-15T07:08:13.980Z,98797.02
2019-03-15T07:12:16.273Z,98799.86
2019-03-15T07:16:20.138Z,98796.03
2019-03-15T07:20:22.374Z,98802.22
2019-03-15T07:24:25.740Z,98796.11
2019-03-15T07:28:28.159Z,98804.58
2019-03-15T07:32:31.070Z,98804.80
2019-03-15T07:36:33.484Z,98806.59
2019-03-15T07:40:35.674Z,98811.47
2019-03-15T07:44:37.910Z,98819.62
2019-03-15T07:48:40.097Z,98823.23
2019-03-15T07:52:42.425Z,98822.14
2019-03-15T07:56:44.603Z,98814.83
2019-03-15T08:00:46.866Z,98820.43
2019-03-15T08:04:49.060Z,98830.38
2019-03-15T08:08:51.306Z,98828.08
2019-03-15T08:12:53.480Z,98834.55
2019-03-15T08:16:55.706Z,98833.59
2019-03-15T08:20:58.420Z,98840.80
2019-03-15T08:25:00.705Z,98849.53
2019-03-15T08:29:02.955Z,98846.56
2019-03-15T08:33:10.469Z,98856.09
2019-03-15T08:37:09.106Z,98863.17
2019-03-15T08:41:11.373Z,98862.11
2019-03-15T08:45:14.459Z,98871.94
2019-03-15T08:49:16.772Z,98864.36
2019-03-15T08:53:18.926Z,98865.65
2019-03-15T08:57:21.216Z,98870.05
2019-03-15T09:01:24.028Z,98862.06
2019-03-15T09:05:26.511Z,98871.67
2019-03-15T09:09:28.883Z,98877.52
2019-03-15T09:13:31.301Z,98872.37
2019-03-15T09:17:33.655Z,98872.37
2019-03-15T09:21:36.343Z,98868.73
2019-03-15T09:25:38.618Z,98874.95
2019-03-15T09:29:42.571Z,98878.81
2019-03-15T09:33:46.208Z,98885.90
2019-03-15T09:37:51.708Z,98891.39
2019-03-15T09:41:57.263Z,98891.28
2019-03-15T09:45:59.496Z,98898.80
2019-03-15T09:50:01.682Z,98900.67
2019-03-15T09:54:04.032Z,98901.74
2019-03-15T09:58:06.237Z,98904.16
2019-03-15T10:02:08.661Z,98900.56
2019-03-15T10:06:15.697Z,98903.06
2019-03-15T10:10:18.509Z,98895.05
2019-03-15T10:14:19.498Z,98896.78
2019-03-15T10:18:21.774Z,98893.20
2019-03-15T10:22:23.953Z,98891.34
2019-03-15T10:26:26.404Z,98894.23
2019-03-15T10:30:28.595Z,98897.00
2019-03-15T10:34:30.828Z,98895.07
2019-03-15T10:38:33.011Z,98894.20
2019-03-15T10:42:35.275Z,98895.98
2019-03-15T10:46:37.487Z,98893.09
2019-03-15T10:50:39.856Z,98887.27
2019-03-15T10:54:42.049Z,98888.27
2019-03-15T10:58:44.330Z,98893.82
2019-03-15T11:02:46.519Z,98896.44
2019-03-15T11:06:48.769Z,98896.70
2019-03-15T11:10:50.961Z,98896.39
2019-03-15T11:14:53.393Z,98890.97
2019-03-15T11:18:55.611Z,98890.11
2019-03-15T11:22:58.077Z,98893.80
2019-03-15T11:27:00.471Z,98888.79
2019-03-15T11:31:02.724Z,98897.66
2019-03-15T11:35:05.246Z,98894.28
2019-03-15T11:39:09.467Z,98890.84
2019-03-15T11:43:11.655Z,98879.20
2019-03-15T11:47:14.024Z,98880.63
2019-03-15T11:51:16.164Z,98875.86
2019-03-15T11:55:19.518Z,98870.65
2019-03-15T11:59:21.715Z,98868.85
2019-03-15T12:03:24.031Z,98868.80
2019-03-15T12:07:26.256Z,98870.02
2019-03-15T12:11:28.523Z,98874.48
2019-03-15T12:15:30.875Z,98871.64
2019-03-15T12:19:33.175Z,98863.07
2019-03-15T12:23:35.370Z,98856.00
2019-03-15T12:27:37.762Z,98860.55
2019-03-15T12:31:40.093Z,98869.19
2019-03-15T12:35:44.552Z,98865.90
2019-03-15T12:39:46.868Z,98868.09
2019-03-15T12:43:49.295Z,98864.80
2019-03-15T12:47:51.631Z,98860.59
2019-03-15T12:51:54.103Z,98860.96
2019-03-15T12:55:56.302Z,98859.56
2019-03-15T12:59:58.659Z,98861.64
2019-03-15T13:04:00.843Z,98857.47
2019-03-15T13:08:03.423Z,98865.65
2019-03-15T13:12:05.615Z,98857.88
2019-03-15T13:16:07.874Z,98859.20
2019-03-15T13:20:11.806Z,98863.77
2019-03-15T13:24:14.074Z,98859.92
2019-03-15T13:28:16.254Z,98851.80
2019-03-15T13:32:20.406Z,98853.23
2019-03-15T13:36:22.676Z,98854.08
2019-03-15T13:40:24.981Z,98849.91
2019-03-15T13:44:27.166Z,98846.91
2019-03-15T13:48:30.523Z,98841.64
2019-03-15T13:52:32.705Z,98847.52
2019-03-15T13:56:35.235Z,98852.19
2019-03-15T14:00:37.468Z,98848.49
2019-03-15T14:04:39.857Z,98843.81
2019-03-15T14:08:42.034Z,98843.80
2019-03-15T14:12:45.255Z,98836.88
2019-03-15T14:16:47.456Z,98832.47
2019-03-15T14:20:49.946Z,98839.64
2019-03-15T14:24:52.140Z,98842.75
2019-03-15T14:28:58.399Z,98834.71
2019-03-15T14:33:01.945Z,98832.72
2019-03-15T14:37:05.316Z,98829.75
2019-03-15T14:41:08.091Z,98829.02
2019-03-15T14:45:10.932Z,98826.61
2019-03-15T14:49:13.210Z,98822.80
2019-03-15T14:53:15.908Z,98825.43
2019-03-15T14:57:18.086Z,98824.11
2019-03-15T15:01:20.388Z,98827.00
2019-03-15T15:05:22.601Z,98832.28
2019-03-15T15:09:25.054Z,98824.73
2019-03-15T15:13:27.292Z,98825.23
2019-03-15T15:17:29.619Z,98824.53
2019-03-15T15:21:31.809Z,98818.80
2019-03-15T15:25:34.088Z,98812.09
2019-03-15T15:29:36.634Z,98815.92
2019-03-15T15:33:40.524Z,98811.05
2019-03-15T15:37:42.921Z,98808.05
2019-03-15T15:41:45.218Z,98804.00
2019-03-15T15:45:47.573Z,98800.16
2019-03-15T15:49:49.866Z,98802.56
2019-03-15T15:53:52.098Z,98798.86
2019-03-15T15:57:54.361Z,98790.03
2019-03-15T16:01:56.568Z,98792.67
2019-03-15T16:05:59.033Z,98789.30
2019-03-15T16:10:01.223Z,98783.95
2019-03-15T16:14:03.802Z,98786.32
2019-03-15T16:18:06.003Z,98779.75
2019-03-15T16:22:08.348Z,98783.11
2019-03-15T16:26:10.578Z,98785.27
2019-03-15T16:30:13.857Z,98776.88
2019-03-15T16:34:16.047Z,98770.19
2019-03-15T16:38:18.333Z,98768.73
2019-03-15T16:42:20.771Z,98775.20
2019-03-15T16:46:23.082Z,98769.94
2019-03-15T16:50:25.339Z,98766.47
2019-03-15T16:54:27.645Z,98770.31
2019-03-15T16:58:29.839Z,98767.54
2019-03-15T17:02:32.128Z,98770.17
2019-03-15T17:06:34.355Z,98764.80
2019-03-15T17:10:36.650Z,98764.56
2019-03-15T17:14:39.076Z,98758.14
2019-03-15T17:18:41.618Z,98755.87
2019-03-15T17:22:44.851Z,98745.13
2019-03-15T17:26:47.102Z,98738.18
2019-03-15T17:30:49.386Z,98731.75
2019-03-15T17:34:51.795Z,98725.03
2019-03-15T17:38:54.067Z,98721.34
2019-03-15T17:42:56.485Z,98718.48
2019-03-15T17:47:00.020Z,98719.09
2019-03-15T17:51:02.397Z,98724.45
2019-03-15T17:55:04.704Z,98720.52
2019-03-15T17:59:12.509Z,98718.11
2019-03-15T18:03:20.649Z,98712.13
2019-03-15T18:07:15.206Z,98710.09
2019-03-15T18:11:17.415Z,98700.65
2019-03-15T18:15:19.874Z,98700.52
2019-03-15T18:19:22.133Z,98694.03
2019-03-15T18:23:24.702Z,98694.28
2019-03-15T18:27:27.019Z,98686.62
2019-03-15T18:31:29.775Z,98688.61
2019-03-15T18:35:34.034Z,98685.50
2019-03-15T18:39:35.969Z,98679.16
2019-03-15T18:43:38.149Z,98675.42
2019-03-15T18:47:40.828Z,98674.08
2019-03-15T18:51:43.128Z,98667.87
2019-03-15T18:55:45.406Z,98667.47
2019-03-15T18:59:47.583Z,98662.79
2019-03-15T19:03:49.860Z,98658.84
2019-03-15T19:07:52.104Z,98649.85
2019-03-15T19:11:54.375Z,98651.05
2019-03-15T19:15:56.576Z,98648.76
2019-03-15T19:19:58.843Z,98645.02
2019-03-15T19:24:01.028Z,98648.34
2019-03-15T19:28:03.522Z,98645.93
2019-03-15T19:32:06.949Z,98634.52
2019-03-15T19:36:09.194Z,98636.46
2019-03-15T19:40:12.616Z,98632.03
2019-03-15T19:44:14.914Z,98626.08
2019-03-15T19:48:17.125Z,98620.56
2019-03-15T19:52:19.699Z,98621.03
2019-03-15T19:56:21.882Z,98606.33
2019-03-15T20:00:24.295Z,98594.12
2019-03-15T20:04:26.581Z,98585.44
2019-03-15T20:08:28.875Z,98588.72
2019-03-15T20:12:31.113Z,98579.86
2019-03-15T20:16:33.407Z,98580.44
2019-03-15T20:20:35.622Z,98580.22
2019-03-15T20:24:37.857Z,98582.97
2019-03-15T20:28:40.088Z,98591.71
2019-03-15T20:32:43.921Z,98581.34
2019-03-15T20:36:46.159Z,98569.48
2019-03-15T20:40:48.443Z,98559.55
2019-03-15T20:44:51.656Z,98551.39
2019-03-15T20:48:53.945Z,98545.64
2019-03-15T20:53:07.611Z,98544.11
2019-03-15T20:57:00.186Z,98537.53
2019-03-15T21:01:02.398Z,98526.79
2019-03-15T21:05:07.861Z,98522.69
2019-03-15T21:09:09.599Z,98542.65
2019-03-15T21:13:11.880Z,98526.38
2019-03-15T21:17:14.329Z,98513.16
2019-03-15T21:21:16.645Z,98521.64
2019-03-15T21:25:18.846Z,98518.00
2019-03-15T21:29:21.180Z,98509.74
2019-03-15T21:33:23.654Z,98513.00
2019-03-15T21:37:25.946Z,98506.84
2019-03-15T21:41:28.194Z,98509.69
2019-03-15T21:45:30.466Z,98511.69
2019-03-15T21:49:35.218Z,98506.21
2019-03-15T21:53:36.598Z,98501.31
2019-03-15T21:57:38.883Z,98489.10
2019-03-15T22:01:41.159Z,98488.14
2019-03-15T22:05:43.453Z,98486.95
2019-03-15T22:09:45.722Z,98479.80
2019-03-15T22:13:47.923Z,98485.63
2019-03-15T22:17:50.366Z,98479.63
2019-03-15T22:21:52.746Z,98473.16
2019-03-15T22:25:55.010Z,98464.52
2019-03-15T22:29:57.287Z,98458.50
2019-03-15T22:33:59.785Z,98462.45
2019-03-15T22:38:01.994Z,98453.81
2019-03-15T22:42:04.294Z,98446.69
2019-03-15T22:46:06.512Z,98445.73
2019-03-15T22:50:08.745Z,98446.48
2019-03-15T22:54:10.936Z,98437.27
2019-03-15T22:58:13.198Z,98436.55
2019-03-15T23:02:15.405Z,98428.44
2019-03-15T23:06:17.704Z,98429.84
2019-03-15T23:10:19.910Z,98425.69
2019-03-15T23:14:22.178Z,98426.38
2019-03-15T23:18:24.380Z,98428.23
2019-03-15T23:22:26.778Z,98421.51
2019-03-15T23:26:31.550Z,98417.89
2019-03-15T23:30:34.014Z,98412.66
2019-03-15T23:34:36.670Z,98409.60
2019-03-15T23:38:39.197Z,98409.75
2019-03-15T23:42:41.684Z,98409.96
2019-03-15T23:46:44.299Z,98400.13
2019-03-15T23:50:46.473Z,98400.60
2019-03-15T23:54:48.933Z,98396.45
2019-03-15T23:58:51.343Z,98395.28
